sensor_id;sensor_type;location;lat;lon;timestamp;pressure;altitude;pressure_sealevel;temperature;humidity
41078;BME280;26823;42.662;23.352;2023-03-31T00:01:26;94742.91;;;7.56;63.79
41078;BME280;26823;42.662;23.352;2023-03-31T00:03:51;94751.31;;;7.65;63.66
41078;BME280;26823;42.662;23.352;2023-03-31T00:06:27;94748.66;;;7.70;63.48
41078;BME280;26823;42.662;23.352;2023-03-31T00:08:53;94755.50;;;7.40;66.24
41078;BME280;26823;42.662;23.352;2023-03-31T00:11:20;94744.69;;;7.30;65.26
41078;BME280;26823;42.662;23.352;2023-03-31T00:13:46;94747.47;;;7.50;65.02
41078;BME280;26823;42.662;23.352;2023-03-31T00:16:11;94743.44;;;7.48;65.00
41078;BME280;26823;42.662;23.352;2023-03-31T00:18:37;94741.00;;;7.46;65.10
41078;BME280;26823;42.662;23.352;2023-03-31T00:21:11;94743.44;;;7.48;64.74
41078;BME280;26823;42.662;23.352;2023-03-31T00:23:49;94748.47;;;7.34;65.63
41078;BME280;26823;42.662;23.352;2023-03-31T00:26:15;94734.44;;;6.89;66.76
41078;BME280;26823;42.662;23.352;2023-03-31T00:28:40;94743.75;;;7.14;66.45
41078;BME280;26823;42.662;23.352;2023-03-31T00:31:05;94740.81;;;7.21;66.76
41078;BME280;26823;42.662;23.352;2023-03-31T00:33:31;94749.69;;;7.16;66.36
41078;BME280;26823;42.662;23.352;2023-03-31T00:35:56;94692.03;;;7.01;65.93
41078;BME280;26823;42.662;23.352;2023-03-31T00:38:26;94714.16;;;7.14;66.11
41078;BME280;26823;42.662;23.352;2023-03-31T00:40:53;94719.59;;;7.24;66.21
41078;BME280;26823;42.662;23.352;2023-03-31T00:43:39;94718.88;;;7.34;65.84
41078;BME280;26823;42.662;23.352;2023-03-31T00:46:28;94731.81;;;7.42;65.35
41078;BME280;26823;42.662;23.352;2023-03-31T00:48:56;94713.88;;;7.58;65.28
41078;BME280;26823;42.662;23.352;2023-03-31T00:51:23;94731.91;;;7.58;64.11
41078;BME280;26823;42.662;23.352;2023-03-31T00:53:53;94708.91;;;7.34;65.85
41078;BME280;26823;42.662;23.352;2023-03-31T00:56:33;94732.38;;;7.44;66.03
41078;BME280;26823;42.662;23.352;2023-03-31T00:59:03;94716.91;;;7.72;64.88
41078;BME280;26823;42.662;23.352;2023-03-31T01:01:31;94714.13;;;7.51;64.53
41078;BME280;26823;42.662;23.352;2023-03-31T01:04:00;94710.72;;;7.72;64.29
41078;BME280;26823;42.662;23.352;2023-03-31T01:06:26;94707.16;;;7.61;65.41
41078;BME280;26823;42.662;23.352;2023-03-31T01:08:55;94692.91;;;7.60;65.34
41078;BME280;26823;42.662;23.352;2023-03-31T01:11:23;94693.50;;;7.73;65.16
41078;BME280;26823;42.662;23.352;2023-03-31T01:13:53;94695.78;;;7.48;65.13
41078;BME280;26823;42.662;23.352;2023-03-31T01:16:20;94707.34;;;7.39;65.63
41078;BME280;26823;42.662;23.352;2023-03-31T01:18:47;94671.84;;;7.47;65.27
41078;BME280;26823;42.662;23.352;2023-03-31T01:21:54;94696.94;;;7.58;64.85
41078;BME280;26823;42.662;23.352;2023-03-31T01:24:38;94698.56;;;7.59;64.40
41078;BME280;26823;42.662;23.352;2023-03-31T01:30:15;94717.53;;;7.95;63.69
41078;BME280;26823;42.662;23.352;2023-03-31T01:35:48;94717.25;;;7.91;64.34
41078;BME280;26823;42.662;23.352;2023-03-31T01:38:45;94723.19;;;7.98;64.66
41078;BME280;26823;42.662;23.352;2023-03-31T01:41:22;94729.38;;;7.99;65.30
41078;BME280;26823;42.662;23.352;2023-03-31T01:46:32;94728.63;;;8.19;63.98
41078;BME280;26823;42.662;23.352;2023-03-31T01:51:40;94745.06;;;8.18;63.81
41078;BME280;26823;42.662;23.352;2023-03-31T01:57:00;94734.03;;;8.14;63.59
41078;BME280;26823;42.662;23.352;2023-03-31T01:59:37;94747.19;;;8.10;64.25
41078;BME280;26823;42.662;23.352;2023-03-31T02:02:12;94743.16;;;8.08;65.01
41078;BME280;26823;42.662;23.352;2023-03-31T02:04:47;94740.94;;;7.89;66.04
41078;BME280;26823;42.662;23.352;2023-03-31T02:07:19;94726.88;;;7.72;66.71
41078;BME280;26823;42.662;23.352;2023-03-31T02:09:49;94743.56;;;7.79;66.58
41078;BME280;26823;42.662;23.352;2023-03-31T02:12:18;94754.78;;;8.13;65.48
41078;BME280;26823;42.662;23.352;2023-03-31T02:14:46;94751.34;;;8.33;64.64
41078;BME280;26823;42.662;23.352;2023-03-31T02:17:18;94750.19;;;8.14;65.79
41078;BME280;26823;42.662;23.352;2023-03-31T02:19:49;94763.88;;;7.97;65.87
41078;BME280;26823;42.662;23.352;2023-03-31T02:22:16;94741.00;;;8.05;65.87
41078;BME280;26823;42.662;23.352;2023-03-31T02:24:45;94774.31;;;7.83;65.84
41078;BME280;26823;42.662;23.352;2023-03-31T02:27:18;94781.16;;;8.16;68.75
41078;BME280;26823;42.662;23.352;2023-03-31T02:29:45;94751.06;;;7.66;68.82
41078;BME280;26823;42.662;23.352;2023-03-31T02:32:17;94766.47;;;7.81;70.92
41078;BME280;26823;42.662;23.352;2023-03-31T02:34:44;94780.03;;;7.97;68.91
41078;BME280;26823;42.662;23.352;2023-03-31T02:37:10;94769.66;;;7.68;71.05
41078;BME280;26823;42.662;23.352;2023-03-31T02:39:38;94782.69;;;7.87;70.39
41078;BME280;26823;42.662;23.352;2023-03-31T02:42:05;94788.06;;;7.87;71.74
41078;BME280;26823;42.662;23.352;2023-03-31T02:44:38;94793.50;;;7.97;71.03
41078;BME280;26823;42.662;23.352;2023-03-31T02:47:06;94778.13;;;7.97;70.63
41078;BME280;26823;42.662;23.352;2023-03-31T02:49:33;94798.59;;;7.93;74.88
41078;BME280;26823;42.662;23.352;2023-03-31T02:52:25;94793.53;;;8.02;77.72
41078;BME280;26823;42.662;23.352;2023-03-31T02:55:14;94773.09;;;8.16;77.57
41078;BME280;26823;42.662;23.352;2023-03-31T03:00:43;94771.63;;;8.52;75.82
41078;BME280;26823;42.662;23.352;2023-03-31T03:03:36;94763.75;;;8.45;77.32
41078;BME280;26823;42.662;23.352;2023-03-31T03:06:23;94750.25;;;8.40;77.14
41078;BME280;26823;42.662;23.352;2023-03-31T03:14:26;94741.69;;;8.69;74.61
41078;BME280;26823;42.662;23.352;2023-03-31T03:16:58;94717.69;;;8.46;75.83
41078;BME280;26823;42.662;23.352;2023-03-31T03:19:26;94720.34;;;8.41;77.73
41078;BME280;26823;42.662;23.352;2023-03-31T03:21:52;94728.34;;;8.15;78.93
41078;BME280;26823;42.662;23.352;2023-03-31T03:24:18;94717.34;;;8.17;80.32
41078;BME280;26823;42.662;23.352;2023-03-31T03:26:44;94709.19;;;7.96;79.60
41078;BME280;26823;42.662;23.352;2023-03-31T03:29:11;94717.28;;;8.07;80.48
41078;BME280;26823;42.662;23.352;2023-03-31T03:31:42;94721.06;;;8.06;78.24
41078;BME280;26823;42.662;23.352;2023-03-31T03:34:08;94709.72;;;7.93;77.92
41078;BME280;26823;42.662;23.352;2023-03-31T03:36:37;94716.66;;;7.84;80.15
41078;BME280;26823;42.662;23.352;2023-03-31T03:39:04;94694.53;;;7.66;81.21
41078;BME280;26823;42.662;23.352;2023-03-31T03:41:30;94716.19;;;7.97;79.99
41078;BME280;26823;42.662;23.352;2023-03-31T03:43:58;94708.13;;;8.08;80.19
41078;BME280;26823;42.662;23.352;2023-03-31T03:46:23;94671.75;;;7.95;79.97
41078;BME280;26823;42.662;23.352;2023-03-31T03:48:49;94703.34;;;8.30;78.55
41078;BME280;26823;42.662;23.352;2023-03-31T03:51:14;94707.06;;;8.09;76.79
41078;BME280;26823;42.662;23.352;2023-03-31T03:53:46;94708.09;;;7.92;76.98
41078;BME280;26823;42.662;23.352;2023-03-31T03:56:12;94700.00;;;7.87;76.47
41078;BME280;26823;42.662;23.352;2023-03-31T03:58:37;94709.94;;;7.81;76.34
41078;BME280;26823;42.662;23.352;2023-03-31T04:01:02;94702.09;;;7.75;76.66
41078;BME280;26823;42.662;23.352;2023-03-31T04:03:28;94703.78;;;7.91;76.56
41078;BME280;26823;42.662;23.352;2023-03-31T04:05:54;94719.19;;;8.06;76.04
41078;BME280;26823;42.662;23.352;2023-03-31T04:08:19;94722.16;;;8.10;76.69
41078;BME280;26823;42.662;23.352;2023-03-31T04:10:45;94720.53;;;8.04;78.59
41078;BME280;26823;42.662;23.352;2023-03-31T04:13:14;94724.31;;;8.18;75.07
41078;BME280;26823;42.662;23.352;2023-03-31T04:15:39;94721.09;;;8.11;78.20
41078;BME280;26823;42.662;23.352;2023-03-31T04:18:05;94726.53;;;8.31;76.71
41078;BME280;26823;42.662;23.352;2023-03-31T04:20:30;94727.31;;;8.32;78.28
41078;BME280;26823;42.662;23.352;2023-03-31T04:22:56;94716.25;;;8.18;73.33
41078;BME280;26823;42.662;23.352;2023-03-31T04:25:21;94720.88;;;8.38;72.60
41078;BME280;26823;42.662;23.352;2023-03-31T04:27:51;94712.28;;;8.41;76.29
41078;BME280;26823;42.662;23.352;2023-03-31T04:30:21;94715.28;;;8.50;73.96
41078;BME280;26823;42.662;23.352;2023-03-31T04:32:51;94716.34;;;8.64;74.74
41078;BME280;26823;42.662;23.352;2023-03-31T04:35:18;94711.16;;;8.32;75.86
41078;BME280;26823;42.662;23.352;2023-03-31T04:37:46;94692.28;;;8.22;74.59
41078;BME280;26823;42.662;23.352;2023-03-31T04:40:12;94715.81;;;8.52;76.28
41078;BME280;26823;42.662;23.352;2023-03-31T04:42:37;94716.34;;;8.49;76.81
41078;BME280;26823;42.662;23.352;2023-03-31T04:45:03;94693.94;;;8.43;74.44
41078;BME280;26823;42.662;23.352;2023-03-31T04:47:29;94708.22;;;8.44;75.08
41078;BME280;26823;42.662;23.352;2023-03-31T04:49:54;94704.16;;;8.31;75.75
41078;BME280;26823;42.662;23.352;2023-03-31T04:52:20;94695.00;;;8.37;75.87
41078;BME280;26823;42.662;23.352;2023-03-31T04:54:45;94691.78;;;8.45;75.63
41078;BME280;26823;42.662;23.352;2023-03-31T04:57:11;94679.94;;;8.41;73.65
41078;BME280;26823;42.662;23.352;2023-03-31T04:59:36;94673.69;;;8.25;72.99
41078;BME280;26823;42.662;23.352;2023-03-31T05:02:01;94680.16;;;8.24;73.37
41078;BME280;26823;42.662;23.352;2023-03-31T05:04:27;94686.09;;;8.26;74.37
41078;BME280;26823;42.662;23.352;2023-03-31T05:06:52;94696.03;;;8.15;75.83
41078;BME280;26823;42.662;23.352;2023-03-31T05:09:18;94678.78;;;8.06;76.30
41078;BME280;26823;42.662;23.352;2023-03-31T05:11:44;94693.09;;;8.27;75.93
41078;BME280;26823;42.662;23.352;2023-03-31T05:14:10;94706.09;;;8.51;75.85
41078;BME280;26823;42.662;23.352;2023-03-31T05:16:35;94689.66;;;8.47;75.49
41078;BME280;26823;42.662;23.352;2023-03-31T05:19:01;94640.78;;;8.08;75.36
41078;BME280;26823;42.662;23.352;2023-03-31T05:21:26;94662.41;;;8.39;75.85
41078;BME280;26823;42.662;23.352;2023-03-31T05:23:55;94673.22;;;8.80;74.67
41078;BME280;26823;42.662;23.352;2023-03-31T05:26:21;94671.34;;;8.75;74.98
41078;BME280;26823;42.662;23.352;2023-03-31T05:28:49;94659.47;;;8.51;76.78
41078;BME280;26823;42.662;23.352;2023-03-31T05:31:15;94622.50;;;8.36;76.41
41078;BME280;26823;42.662;23.352;2023-03-31T05:33:40;94653.28;;;8.60;76.22
41078;BME280;26823;42.662;23.352;2023-03-31T05:36:10;94671.59;;;8.63;75.74
41078;BME280;26823;42.662;23.352;2023-03-31T05:38:36;94669.72;;;8.85;76.06
41078;BME280;26823;42.662;23.352;2023-03-31T05:41:02;94666.44;;;9.13;74.93
41078;BME280;26823;42.662;23.352;2023-03-31T05:43:28;94637.88;;;8.71;75.66
41078;BME280;26823;42.662;23.352;2023-03-31T05:45:53;94663.25;;;8.75;76.32
41078;BME280;26823;42.662;23.352;2023-03-31T05:48:19;94666.44;;;9.13;75.02
41078;BME280;26823;42.662;23.352;2023-03-31T05:50:46;94665.81;;;9.53;74.75
41078;BME280;26823;42.662;23.352;2023-03-31T05:53:11;94651.88;;;8.99;74.82
41078;BME280;26823;42.662;23.352;2023-03-31T05:55:37;94664.00;;;9.22;74.72
41078;BME280;26823;42.662;23.352;2023-03-31T05:58:03;94656.59;;;9.54;73.49
41078;BME280;26823;42.662;23.352;2023-03-31T06:00:28;94666.88;;;9.57;71.02
41078;BME280;26823;42.662;23.352;2023-03-31T06:02:54;94688.78;;;9.29;72.35
41078;BME280;26823;42.662;23.352;2023-03-31T06:05:19;94660.25;;;9.03;73.35
41078;BME280;26823;42.662;23.352;2023-03-31T06:07:45;94661.03;;;9.19;72.99
41078;BME280;26823;42.662;23.352;2023-03-31T06:10:10;94683.84;;;9.57;72.52
41078;BME280;26823;42.662;23.352;2023-03-31T06:12:35;94686.34;;;9.38;73.14
41078;BME280;26823;42.662;23.352;2023-03-31T06:15:02;94678.28;;;9.23;72.86
41078;BME280;26823;42.662;23.352;2023-03-31T06:17:27;94684.69;;;9.53;73.08
41078;BME280;26823;42.662;23.352;2023-03-31T06:19:53;94683.59;;;9.59;71.32
41078;BME280;26823;42.662;23.352;2023-03-31T06:22:18;94686.56;;;9.57;72.57
41078;BME280;26823;42.662;23.352;2023-03-31T06:24:44;94672.28;;;9.52;71.81
41078;BME280;26823;42.662;23.352;2023-03-31T06:27:10;94674.75;;;9.38;72.02
41078;BME280;26823;42.662;23.352;2023-03-31T06:29:35;94665.88;;;9.22;72.96
41078;BME280;26823;42.662;23.352;2023-03-31T06:32:00;94676.03;;;9.61;72.16
41078;BME280;26823;42.662;23.352;2023-03-31T06:34:26;94669.44;;;9.88;69.78
41078;BME280;26823;42.662;23.352;2023-03-31T06:36:51;94677.03;;;9.81;70.70
41078;BME280;26823;42.662;23.352;2023-03-31T06:39:17;94662.22;;;9.62;71.27
41078;BME280;26823;42.662;23.352;2023-03-31T06:41:43;94677.41;;;10.14;69.58
41078;BME280;26823;42.662;23.352;2023-03-31T06:44:09;94674.50;;;10.05;70.07
41078;BME280;26823;42.662;23.352;2023-03-31T06:46:34;94675.44;;;10.24;69.61
41078;BME280;26823;42.662;23.352;2023-03-31T06:49:00;94667.47;;;10.04;68.42
41078;BME280;26823;42.662;23.352;2023-03-31T06:51:26;94673.59;;;10.20;67.66
41078;BME280;26823;42.662;23.352;2023-03-31T06:53:51;94685.25;;;10.60;67.35
41078;BME280;26823;42.662;23.352;2023-03-31T06:56:16;94657.59;;;10.68;66.36
41078;BME280;26823;42.662;23.352;2023-03-31T06:58:42;94682.19;;;10.27;67.92
41078;BME280;26823;42.662;23.352;2023-03-31T07:01:07;94674.59;;;10.39;68.34
41078;BME280;26823;42.662;23.352;2023-03-31T07:03:33;94669.38;;;9.98;69.54
41078;BME280;26823;42.662;23.352;2023-03-31T07:05:58;94669.19;;;10.34;68.75
41078;BME280;26823;42.662;23.352;2023-03-31T07:08:24;94659.69;;;10.76;67.19
41078;BME280;26823;42.662;23.352;2023-03-31T07:10:54;94667.03;;;11.59;64.19
41078;BME280;26823;42.662;23.352;2023-03-31T07:13:21;94641.41;;;13.04;58.17
41078;BME280;26823;42.662;23.352;2023-03-31T07:15:48;94637.78;;;13.83;55.38
41078;BME280;26823;42.662;23.352;2023-03-31T07:18:15;94629.81;;;14.01;55.40
41078;BME280;26823;42.662;23.352;2023-03-31T07:20:41;94634.47;;;17.31;46.62
41078;BME280;26823;42.662;23.352;2023-03-31T07:23:07;94629.81;;;17.70;43.64
41078;BME280;26823;42.662;23.352;2023-03-31T07:25:33;94620.97;;;18.75;40.07
41078;BME280;26823;42.662;23.352;2023-03-31T07:27:59;94610.13;;;19.34;38.32
41078;BME280;26823;42.662;23.352;2023-03-31T07:30:24;94614.44;;;19.22;37.47
41078;BME280;26823;42.662;23.352;2023-03-31T07:32:51;94621.91;;;20.58;34.86
41078;BME280;26823;42.662;23.352;2023-03-31T07:35:18;94643.25;;;20.24;34.90
41078;BME280;26823;42.662;23.352;2023-03-31T07:37:45;94627.31;;;19.55;35.90
41078;BME280;26823;42.662;23.352;2023-03-31T07:40:14;94627.09;;;19.73;36.73
41078;BME280;26823;42.662;23.352;2023-03-31T07:42:40;94634.66;;;20.38;36.96
41078;BME280;26823;42.662;23.352;2023-03-31T07:45:07;94613.88;;;21.34;34.51
41078;BME280;26823;42.662;23.352;2023-03-31T07:47:32;94615.59;;;21.27;34.56
41078;BME280;26823;42.662;23.352;2023-03-31T07:49:58;94578.66;;;20.55;35.33
41078;BME280;26823;42.662;23.352;2023-03-31T07:52:30;94616.22;;;21.64;32.53
41078;BME280;26823;42.662;23.352;2023-03-31T07:54:55;94611.69;;;22.56;30.97
41078;BME280;26823;42.662;23.352;2023-03-31T07:57:21;94610.66;;;22.44;29.49
41078;BME280;26823;42.662;23.352;2023-03-31T07:59:47;94619.09;;;23.50;28.51
41078;BME280;26823;42.662;23.352;2023-03-31T08:02:14;94616.22;;;23.66;27.92
41078;BME280;26823;42.662;23.352;2023-03-31T08:04:40;94606.97;;;23.77;27.77
41078;BME280;26823;42.662;23.352;2023-03-31T08:07:10;94597.19;;;23.84;26.20
41078;BME280;26823;42.662;23.352;2023-03-31T08:09:36;94591.00;;;23.67;31.65
41078;BME280;26823;42.662;23.352;2023-03-31T08:12:02;94606.47;;;24.72;30.19
41078;BME280;26823;42.662;23.352;2023-03-31T08:14:28;94596.78;;;24.89;26.58
41078;BME280;26823;42.662;23.352;2023-03-31T08:16:54;94584.53;;;22.38;28.33
41078;BME280;26823;42.662;23.352;2023-03-31T08:19:22;94582.41;;;20.22;31.95
41078;BME280;26823;42.662;23.352;2023-03-31T08:21:48;94578.78;;;19.22;32.77
41078;BME280;26823;42.662;23.352;2023-03-31T08:24:13;94574.38;;;18.42;34.64
41078;BME280;26823;42.662;23.352;2023-03-31T08:26:40;94552.25;;;17.75;34.74
41078;BME280;26823;42.662;23.352;2023-03-31T08:29:06;94573.75;;;18.79;35.20
41078;BME280;26823;42.662;23.352;2023-03-31T08:31:31;94577.72;;;20.10;34.96
41078;BME280;26823;42.662;23.352;2023-03-31T08:33:56;94574.59;;;20.24;36.32
41078;BME280;26823;42.662;23.352;2023-03-31T08:36:22;94589.22;;;20.41;38.09
41078;BME280;26823;42.662;23.352;2023-03-31T08:38:48;94564.94;;;19.90;34.99
41078;BME280;26823;42.662;23.352;2023-03-31T08:43:56;94574.97;;;18.48;34.65
41078;BME280;26823;42.662;23.352;2023-03-31T08:46:24;94566.44;;;18.83;34.93
41078;BME280;26823;42.662;23.352;2023-03-31T08:48:53;94569.28;;;19.07;33.86
41078;BME280;26823;42.662;23.352;2023-03-31T08:51:27;94563.06;;;19.32;32.73
41078;BME280;26823;42.662;23.352;2023-03-31T08:54:00;94567.59;;;19.28;34.09
41078;BME280;26823;42.662;23.352;2023-03-31T08:56:29;94546.41;;;18.91;32.96
41078;BME280;26823;42.662;23.352;2023-03-31T08:58:58;94543.53;;;18.87;33.73
41078;BME280;26823;42.662;23.352;2023-03-31T09:01:43;94563.84;;;18.86;35.09
41078;BME280;26823;42.662;23.352;2023-03-31T09:07:22;94552.72;;;18.49;35.31
41078;BME280;26823;42.662;23.352;2023-03-31T09:10:19;94548.34;;;18.15;33.93
41078;BME280;26823;42.662;23.352;2023-03-31T09:12:55;94543.34;;;17.87;35.41
41078;BME280;26823;42.662;23.352;2023-03-31T09:15:28;94528.84;;;17.95;35.31
41078;BME280;26823;42.662;23.352;2023-03-31T09:18:02;94537.06;;;17.56;35.03
41078;BME280;26823;42.662;23.352;2023-03-31T09:20:33;94535.31;;;16.48;36.71
41078;BME280;26823;42.662;23.352;2023-03-31T09:25:45;94528.84;;;16.70;36.77
41078;BME280;26823;42.662;23.352;2023-03-31T09:28:28;94526.13;;;17.56;35.00
41078;BME280;26823;42.662;23.352;2023-03-31T09:30:55;94521.22;;;18.01;33.85
41078;BME280;26823;42.662;23.352;2023-03-31T09:33:28;94522.00;;;18.98;32.87
41078;BME280;26823;42.662;23.352;2023-03-31T09:36:00;94546.63;;;19.69;32.24
41078;BME280;26823;42.662;23.352;2023-03-31T09:38:27;94533.84;;;19.85;31.51
41078;BME280;26823;42.662;23.352;2023-03-31T09:40:57;94542.41;;;19.59;32.13
41078;BME280;26823;42.662;23.352;2023-03-31T09:43:26;94545.50;;;19.58;32.26
41078;BME280;26823;42.662;23.352;2023-03-31T09:45:53;94534.88;;;19.93;31.66
41078;BME280;26823;42.662;23.352;2023-03-31T09:48:27;94528.44;;;19.64;31.73
41078;BME280;26823;42.662;23.352;2023-03-31T09:53:33;94513.38;;;19.83;31.86
41078;BME280;26823;42.662;23.352;2023-03-31T09:56:02;94524.28;;;20.20;30.65
41078;BME280;26823;42.662;23.352;2023-03-31T09:58:28;94512.38;;;20.57;29.85
41078;BME280;26823;42.662;23.352;2023-03-31T10:03:23;94523.72;;;20.55;30.25
41078;BME280;26823;42.662;23.352;2023-03-31T10:05:53;94509.31;;;20.17;31.18
41078;BME280;26823;42.662;23.352;2023-03-31T10:08:29;94502.75;;;20.63;30.71
41078;BME280;26823;42.662;23.352;2023-03-31T10:11:05;94492.50;;;21.04;32.41
41078;BME280;26823;42.662;23.352;2023-03-31T10:16:06;94480.06;;;20.94;28.91
41078;BME280;26823;42.662;23.352;2023-03-31T10:18:41;94477.03;;;21.31;31.40
41078;BME280;26823;42.662;23.352;2023-03-31T10:21:35;94498.44;;;21.22;29.99
41078;BME280;26823;42.662;23.352;2023-03-31T10:24:07;94494.53;;;20.22;31.96
41078;BME280;26823;42.662;23.352;2023-03-31T10:26:35;94486.78;;;20.52;30.94
41078;BME280;26823;42.662;23.352;2023-03-31T10:29:01;94485.91;;;20.36;33.28
41078;BME280;26823;42.662;23.352;2023-03-31T10:31:35;94482.19;;;20.85;30.90
41078;BME280;26823;42.662;23.352;2023-03-31T10:34:12;94477.66;;;20.93;29.24
41078;BME280;26823;42.662;23.352;2023-03-31T10:36:45;94477.31;;;20.66;29.95
41078;BME280;26823;42.662;23.352;2023-03-31T10:39:18;94467.13;;;20.66;30.52
41078;BME280;26823;42.662;23.352;2023-03-31T10:41:50;94465.25;;;20.26;32.22
41078;BME280;26823;42.662;23.352;2023-03-31T10:44:36;94437.28;;;20.08;30.46
41078;BME280;26823;42.662;23.352;2023-03-31T10:47:20;94458.50;;;20.24;31.33
41078;BME280;26823;42.662;23.352;2023-03-31T10:49:55;94447.91;;;20.38;31.13
41078;BME280;26823;42.662;23.352;2023-03-31T10:52:25;94454.16;;;20.23;31.39
41078;BME280;26823;42.662;23.352;2023-03-31T10:54:59;94450.16;;;20.48;31.39
41078;BME280;26823;42.662;23.352;2023-03-31T10:57:40;94425.09;;;20.21;30.89
41078;BME280;26823;42.662;23.352;2023-03-31T11:00:11;94454.06;;;19.53;33.65
41078;BME280;26823;42.662;23.352;2023-03-31T11:11:21;94452.66;;;19.72;33.20
41078;BME280;26823;42.662;23.352;2023-03-31T11:14:00;94443.50;;;19.93;31.63
41078;BME280;26823;42.662;23.352;2023-03-31T11:37:06;94392.38;;;18.85;32.50
41078;BME280;26823;42.662;23.352;2023-03-31T11:42:05;94400.25;;;19.49;32.72
41078;BME280;26823;42.662;23.352;2023-03-31T11:44:54;94404.69;;;18.79;34.45
41078;BME280;26823;42.662;23.352;2023-03-31T11:47:25;94388.75;;;19.18;32.74
41078;BME280;26823;42.662;23.352;2023-03-31T11:49:58;94395.47;;;19.21;32.89
41078;BME280;26823;42.662;23.352;2023-03-31T11:52:31;94394.69;;;19.20;32.72
41078;BME280;26823;42.662;23.352;2023-03-31T11:55:11;94389.44;;;18.90;33.56
41078;BME280;26823;42.662;23.352;2023-03-31T11:58:03;94394.53;;;18.80;34.11
41078;BME280;26823;42.662;23.352;2023-03-31T12:00:39;94386.09;;;18.85;33.30
41078;BME280;26823;42.662;23.352;2023-03-31T12:05:50;94337.81;;;17.55;34.92
41078;BME280;26823;42.662;23.352;2023-03-31T12:11:28;94362.00;;;18.53;36.88
41078;BME280;26823;42.662;23.352;2023-03-31T12:19:41;94342.72;;;20.21;33.85
41078;BME280;26823;42.662;23.352;2023-03-31T12:22:14;94338.69;;;20.31;33.14
41078;BME280;26823;42.662;23.352;2023-03-31T12:24:42;94339.59;;;20.51;32.48
41078;BME280;26823;42.662;23.352;2023-03-31T12:27:13;94352.03;;;20.77;31.08
41078;BME280;26823;42.662;23.352;2023-03-31T12:29:44;94363.56;;;20.83;31.99
41078;BME280;26823;42.662;23.352;2023-03-31T12:32:17;94316.50;;;19.39;32.11
41078;BME280;26823;42.662;23.352;2023-03-31T12:59:35;94297.84;;;20.62;31.43
41078;BME280;26823;42.662;23.352;2023-03-31T13:04:39;94281.28;;;20.90;30.62
41078;BME280;26823;42.662;23.352;2023-03-31T13:07:35;94288.22;;;20.84;31.03
41078;BME280;26823;42.662;23.352;2023-03-31T13:15:22;94270.09;;;20.19;31.54
41078;BME280;26823;42.662;23.352;2023-03-31T13:18:02;94256.22;;;19.27;32.62
41078;BME280;26823;42.662;23.352;2023-03-31T13:25:48;94213.00;;;17.71;35.12
41078;BME280;26823;42.662;23.352;2023-03-31T13:30:50;94200.81;;;17.69;36.29
41078;BME280;26823;42.662;23.352;2023-03-31T13:33:32;94207.06;;;18.28;38.76
41078;BME280;26823;42.662;23.352;2023-03-31T14:06:39;94150.59;;;17.73;35.11
41078;BME280;26823;42.662;23.352;2023-03-31T14:09:08;94153.41;;;17.52;36.03
41078;BME280;26823;42.662;23.352;2023-03-31T14:11:35;94157.09;;;17.81;35.19
41078;BME280;26823;42.662;23.352;2023-03-31T14:14:04;94155.56;;;18.58;36.15
41078;BME280;26823;42.662;23.352;2023-03-31T14:16:35;94156.13;;;19.17;33.82
41078;BME280;26823;42.662;23.352;2023-03-31T14:19:23;94140.31;;;18.98;36.35
41078;BME280;26823;42.662;23.352;2023-03-31T14:35:52;94129.28;;;19.38;33.08
41078;BME280;26823;42.662;23.352;2023-03-31T14:38:21;94125.03;;;18.84;33.74
41078;BME280;26823;42.662;23.352;2023-03-31T14:40:49;94120.84;;;18.74;34.94
41078;BME280;26823;42.662;23.352;2023-03-31T14:43:39;94123.81;;;19.54;33.52
41078;BME280;26823;42.662;23.352;2023-03-31T14:46:10;94124.09;;;19.81;33.71
41078;BME280;26823;42.662;23.352;2023-03-31T14:48:44;94115.75;;;19.62;35.61
41078;BME280;26823;42.662;23.352;2023-03-31T14:51:12;94114.59;;;19.47;33.47
41078;BME280;26823;42.662;23.352;2023-03-31T14:53:38;94121.06;;;18.29;34.23
41078;BME280;26823;42.662;23.352;2023-03-31T14:56:05;94113.22;;;18.15;34.73
41078;BME280;26823;42.662;23.352;2023-03-31T14:58:41;94091.44;;;17.93;34.77
41078;BME280;26823;42.662;23.352;2023-03-31T15:01:13;94102.63;;;18.13;34.58
41078;BME280;26823;42.662;23.352;2023-03-31T15:03:41;94087.94;;;18.58;35.89
41078;BME280;26823;42.662;23.352;2023-03-31T15:06:08;94104.13;;;18.64;34.46
41078;BME280;26823;42.662;23.352;2023-03-31T15:08:35;94094.16;;;18.71;34.16
41078;BME280;26823;42.662;23.352;2023-03-31T15:11:07;94102.28;;;18.15;35.10
41078;BME280;26823;42.662;23.352;2023-03-31T15:13:36;94098.56;;;18.35;36.20
41078;BME280;26823;42.662;23.352;2023-03-31T15:16:29;94100.16;;;18.49;35.22
41078;BME280;26823;42.662;23.352;2023-03-31T15:18:56;94093.22;;;18.39;36.51
41078;BME280;26823;42.662;23.352;2023-03-31T15:21:24;94088.53;;;18.80;36.31
41078;BME280;26823;42.662;23.352;2023-03-31T15:23:51;94097.75;;;18.88;36.42
41078;BME280;26823;42.662;23.352;2023-03-31T15:26:22;94051.16;;;18.19;35.31
41078;BME280;26823;42.662;23.352;2023-03-31T15:29:01;94081.63;;;18.58;36.92
41078;BME280;26823;42.662;23.352;2023-03-31T15:31:28;94083.25;;;17.93;35.99
41078;BME280;26823;42.662;23.352;2023-03-31T15:33:55;94087.94;;;17.22;36.61
41078;BME280;26823;42.662;23.352;2023-03-31T15:36:20;94091.47;;;17.10;37.41
41078;BME280;26823;42.662;23.352;2023-03-31T15:38:56;94084.91;;;17.36;38.60
41078;BME280;26823;42.662;23.352;2023-03-31T15:41:28;94085.47;;;17.30;38.13
41078;BME280;26823;42.662;23.352;2023-03-31T15:44:06;94082.09;;;17.70;39.18
41078;BME280;26823;42.662;23.352;2023-03-31T15:49:04;94088.13;;;17.75;37.04
41078;BME280;26823;42.662;23.352;2023-03-31T15:51:35;94089.03;;;17.92;36.44
41078;BME280;26823;42.662;23.352;2023-03-31T15:54:01;94078.56;;;17.57;37.18
41078;BME280;26823;42.662;23.352;2023-03-31T15:56:40;94089.28;;;17.62;37.32
41078;BME280;26823;42.662;23.352;2023-03-31T15:59:27;94064.75;;;17.28;38.58